logo
Rechercher aéroport 
image banner adimage banner adimage banner ad
image banner ad

CL48 - Palomar Health Downtown Campus

Situé à Escondido, United States

ICAO - CL48, IATA -

Données fournies par Airmate  

Information générale

Coordonnées: N33°7'28" W117°4'32"
Élévation : 715 feet MSL.
 
Voir autres Aéroports à California

Données opérationnelles

Special qualification required
Heure actuelle UTC:
Heure actuelle locale:
Météo à : KRNM - Ramona ( 18 km )
METAR: KRNM 261453Z 00000KT 10SM CLR 21/12 A2995 RMK AO2 SLP127 T02110117 53007
Voir NOTAMs / SUP AIP / TFR affectant cet aéroport [VIEW]
Fréquences de communication: [VIEW]

Pistes:

Coordonnées de l'aéroport

Adresse: Escondido United States

Vue satellite de CL48